Time;durP1;ratioP1;P1;durP2;ratioP2;P2;SDS_P1;SDS_P2;PMS_P1;PMS_P2;Temp;Humidity;BMP_temperature;BMP_pressure;BME280_temperature;BME280_humidity;BME280_pressure;Samples;Min_cycle;Max_cycle;Signal;HPM_P1;HPM_P2
2021/11/02 00:00:31;;;;;;;118.43;48.15;;;;;;;10.55;68.80;99233.03;5014006;28;20026;-78
2021/11/02 00:02:58;;;;;;;134.93;49.10;;;;;;;10.52;68.83;99228.94;5013816;28;20092;-78
2021/11/02 00:05:23;;;;;;;114.95;44.45;;;;;;;9.94;68.64;99153.28;4996594;28;20094;-77
2021/11/02 00:07:49;;;;;;;90.68;37.50;;;;;;;10.12;68.57;99177.44;5013852;28;20037;-78
2021/11/02 00:10:14;;;;;;;61.30;34.05;;;;;;;9.96;68.88;99148.63;5014006;28;20156;-77
2021/11/02 00:12:40;;;;;;;83.82;34.33;;;;;;;10.43;69.10;99230.88;5013656;28;20033;-78
2021/11/02 00:15:06;;;;;;;98.65;36.22;;;;;;;10.16;68.72;99213.00;5013805;28;20037;-77
2021/11/02 00:17:35;;;;;;;81.03;38.78;;;;;;;10.35;69.25;99219.56;5013490;28;20108;-78
2021/11/02 00:20:03;;;;;;;58.88;36.20;;;;;;;10.36;68.96;99211.47;5013580;28;20026;-78
2021/11/02 00:22:31;;;;;;;54.90;35.10;;;;;;;10.40;68.80;99207.50;4996152;28;20113;-77
2021/11/02 00:25:04;;;;;;;53.72;33.05;;;;;;;10.16;68.97;99174.25;5013712;28;20029;-78
2021/11/02 00:27:32;;;;;;;66.22;31.90;;;;;;;10.35;69.14;99204.56;4996064;28;20100;-78
2021/11/02 00:29:57;;;;;;;79.40;36.97;;;;;;;10.34;68.97;99202.91;5013572;28;20550;-77
2021/11/02 00:32:24;;;;;;;58.65;34.20;;;;;;;9.97;68.76;99152.91;5013427;28;20036;-77
2021/11/02 00:34:50;;;;;;;73.60;37.35;;;;;;;9.77;68.80;99126.28;4996032;28;20022;-77
2021/11/02 00:37:15;;;;;;;71.10;34.67;;;;;;;10.08;69.12;99165.63;5013577;28;20038;-78
2021/11/02 00:39:41;;;;;;;58.47;35.17;;;;;;;9.70;69.21;99114.84;5013379;28;20109;-78
2021/11/02 00:42:07;;;;;;;58.97;33.92;;;;;;;10.25;68.99;99201.38;5013275;28;20053;-78
2021/11/02 00:44:32;;;;;;;54.78;34.28;;;;;;;9.88;69.16;99147.72;5013107;28;20478;-77
2021/11/02 00:46:58;;;;;;;63.63;33.03;;;;;;;9.77;68.97;99136.84;5013252;28;20021;-77
2021/11/02 00:49:25;;;;;;;52.67;32.47;;;;;;;9.66;69.17;99122.28;5013252;28;20097;-78
2021/11/02 00:51:52;;;;;;;52.22;35.17;;;;;;;10.13;69.12;99174.63;5013133;28;20029;-77
2021/11/02 00:54:18;;;;;;;48.78;33.17;;;;;;;9.76;69.38;99114.91;5013094;28;20030;-77
2021/11/02 00:56:44;;;;;;;53.38;33.85;;;;;;;9.83;68.99;99125.56;5012862;28;20024;-78
2021/11/02 00:59:09;;;;;;;59.28;36.08;;;;;;;10.11;69.33;99170.53;5012717;28;20030;-78
2021/11/02 01:01:37;;;;;;;62.13;35.33;;;;;;;10.00;69.41;99149.91;5012902;28;20033;-78
2021/11/02 01:04:05;;;;;;;70.65;37.53;;;;;;;9.70;69.60;99099.84;5012779;28;20046;-77
2021/11/02 01:06:33;;;;;;;65.15;38.28;;;;;;;10.06;69.38;99162.34;5012786;28;20088;-78
2021/11/02 01:08:59;;;;;;;64.55;34.25;;;;;;;9.39;69.75;99060.47;5012697;28;20018;-77
2021/11/02 01:11:25;;;;;;;76.43;36.20;;;;;;;9.44;69.17;99060.75;5012938;28;20501;-78
2021/11/02 01:13:51;;;;;;;75.95;35.10;;;;;;;9.48;70.08;99077.00;5012576;28;20029;-77
2021/11/02 01:16:19;;;;;;;50.90;31.75;;;;;;;9.56;69.38;99079.53;5012554;28;20029;-78
2021/11/02 01:18:44;;;;;;;48.47;30.35;;;;;;;9.68;69.48;99093.13;5012242;28;20491;-77
2021/11/02 01:21:09;;;;;;;60.50;30.92;;;;;;;8.95;69.33;98978.00;5012393;28;20026;-78
2021/11/02 01:23:36;;;;;;;51.55;30.80;;;;;;;9.14;69.28;99007.25;5012741;28;20037;-78
2021/11/02 01:26:01;;;;;;;47.15;29.40;;;;;;;9.91;69.12;99129.91;5012430;28;20101;-77
2021/11/02 01:28:27;;;;;;;42.58;27.92;;;;;;;9.85;69.13;99129.63;5012469;28;20109;-78
2021/11/02 01:30:53;;;;;;;40.63;28.42;;;;;;;9.49;69.12;99082.09;4994856;28;20026;-77
2021/11/02 01:33:19;;;;;;;44.45;28.63;;;;;;;9.48;69.11;99077.81;4994665;28;20049;-77
2021/11/02 01:35:44;;;;;;;46.55;29.58;;;;;;;9.61;69.05;99108.00;5012331;28;20419;-78
2021/11/02 01:38:11;;;;;;;47.22;27.55;;;;;;;9.73;68.99;99132.94;5012174;28;20049;-77
2021/11/02 01:40:36;;;;;;;42.92;26.65;;;;;;;9.44;68.88;99095.00;5012279;28;20029;-78
2021/11/02 01:43:02;;;;;;;37.65;26.75;;;;;;;9.62;69.26;99115.72;5012023;28;20579;-77
2021/11/02 01:45:28;;;;;;;36.90;26.42;;;;;;;9.54;68.75;99106.09;5012105;28;20033;-78
2021/11/02 01:47:55;;;;;;;36.28;25.55;;;;;;;9.67;68.65;99123.09;5012276;28;20025;-78
2021/11/02 01:50:20;;;;;;;38.92;25.83;;;;;;;9.45;68.91;99095.81;4994443;28;20112;-78
2021/11/02 01:52:46;;;;;;;43.83;29.45;;;;;;;9.22;68.78;99061.66;5012105;28;20467;-77
2021/11/02 01:55:13;;;;;;;40.97;27.45;;;;;;;9.68;68.82;99119.47;5012134;28;20022;-78
2021/11/02 01:57:41;;;;;;;37.22;26.25;;;;;;;9.71;68.46;99127.84;5011548;28;20471;-78
2021/11/02 02:00:10;;;;;;;36.45;26.05;;;;;;;9.66;68.27;99110.91;5011889;28;20022;-77
2021/11/02 02:03:02;;;;;;;35.47;25.77;;;;;;;9.71;68.19;99114.66;5011750;28;20493;-77
2021/11/02 02:05:43;;;;;;;;;;;;;;;9.56;68.52;99109.34;4994670;28;20025;-77
2021/11/02 02:08:46;;;;;;;38.08;26.55;;;;;;;9.67;68.10;99115.19;5011594;28;19996;-78
2021/11/02 02:11:25;;;;;;;33.35;23.48;;;;;;;9.65;67.90;99111.91;5011832;28;20088;-78
2021/11/02 02:14:22;;;;;;;34.53;24.38;;;;;;;9.47;67.76;99096.47;5011793;28;20033;-79
2021/11/02 02:16:50;;;;;;;36.15;24.98;;;;;;;9.34;67.96;99105.00;5011989;28;20032;-78
2021/11/02 02:19:56;;;;;;;31.77;24.13;;;;;;;9.42;67.75;99123.34;4993828;28;20403;-77
2021/11/02 02:22:32;;;;;;;31.80;23.25;;;;;;;9.13;67.78;99084.63;5011739;28;20030;-78
2021/11/02 02:25:19;;;;;;;34.35;24.85;;;;;;;9.31;68.00;99122.97;5011819;28;20030;-77
2021/11/02 02:27:45;;;;;;;35.40;24.95;;;;;;;9.33;67.76;99118.34;4993996;28;20026;-78
2021/11/02 02:30:17;;;;;;;35.20;25.70;;;;;;;8.91;67.53;99051.25;5011721;28;20031;-77
2021/11/02 02:32:46;;;;;;;33.22;24.88;;;;;;;9.20;67.43;99103.16;5011462;28;20040;-78
2021/11/02 02:35:13;;;;;;;32.35;23.60;;;;;;;9.39;67.30;99150.06;5011487;28;20030;-78
2021/11/02 02:37:41;;;;;;;34.05;25.27;;;;;;;9.41;66.79;99152.50;5011414;28;20407;-77
2021/11/02 02:40:08;;;;;;;39.20;27.23;;;;;;;9.13;67.07;99087.25;5011320;28;20088;-78
2021/11/02 02:42:37;;;;;;;39.47;27.85;;;;;;;9.39;67.13;99134.25;5011609;28;20041;-78
2021/11/02 02:45:05;;;;;;;38.17;26.20;;;;;;;8.65;67.01;99020.06;5011490;28;20042;-77
2021/11/02 02:47:32;;;;;;;33.05;24.75;;;;;;;9.04;67.18;99071.72;5011224;28;20061;-77
2021/11/02 02:49:58;;;;;;;34.22;24.23;;;;;;;8.91;66.71;99059.97;5011451;28;20044;-78
2021/11/02 02:52:27;;;;;;;36.97;25.70;;;;;;;9.36;66.91;99129.34;5011309;28;20033;-77
2021/11/02 02:54:54;;;;;;;33.83;24.63;;;;;;;8.68;66.52;99051.28;5011373;28;20494;-78
2021/11/02 02:57:23;;;;;;;33.60;24.77;;;;;;;8.96;66.72;99091.06;5011079;28;20030;-78
2021/11/02 02:59:50;;;;;;;39.33;27.92;;;;;;;9.16;67.02;99128.22;5011165;28;20104;-77
2021/11/02 03:02:17;;;;;;;37.10;26.13;;;;;;;8.92;66.85;99116.09;5011000;28;20030;-78
2021/11/02 03:04:45;;;;;;;30.73;23.95;;;;;;;9.19;66.59;99141.03;4993375;28;20497;-77
2021/11/02 03:07:10;;;;;;;33.97;26.58;;;;;;;8.87;66.22;99102.63;5011235;28;20414;-78
2021/11/02 03:09:36;;;;;;;29.73;23.08;;;;;;;9.00;66.39;99123.09;5011119;28;20097;-78
2021/11/02 03:12:04;;;;;;;29.15;23.23;;;;;;;8.78;66.40;99101.88;5011004;28;20491;-78
2021/11/02 03:14:43;;;;;;;29.38;22.88;;;;;;;8.61;66.25;99097.72;5010830;28;20026;-78
2021/11/02 03:17:13;;;;;;;24.60;19.60;;;;;;;8.34;66.40;99058.81;5011074;28;20101;-78
2021/11/02 03:48:24;;;;;;;28.27;22.55;;;;;;;8.56;65.60;99116.69;4992492;28;20041;-78
2021/11/02 03:50:55;;;;;;;29.45;22.58;;;;;;;8.11;66.02;99056.91;4977842;28;20035;-77
2021/11/02 04:46:13;;;;;;;41.80;30.85;;;;;;;8.37;66.21;99016.38;5013483;28;20021;-78
2021/11/02 05:10:12;;;;;;;29.63;24.65;;;;;;;8.26;65.92;99014.94;5013310;28;20014;-77
2021/11/02 05:54:04;;;;;;;22.13;17.42;;;;;;;8.32;65.85;98992.38;5012078;28;20113;-78
2021/11/02 05:56:36;;;;;;;24.70;17.70;;;;;;;8.22;65.53;98974.22;4994398;28;20487;-77
2021/11/02 06:01:52;;;;;;;19.90;16.80;;;;;;;8.69;65.63;99045.03;5011859;28;20136;-78
2021/11/02 06:29:28;;;;;;;21.73;17.17;;;;;;;8.98;65.39;99006.63;5011590;28;20156;-77
2021/11/02 06:32:04;;;;;;;24.33;19.60;;;;;;;8.88;65.71;98986.59;5011568;28;20022;-77
2021/11/02 06:34:53;;;;;;;25.40;19.45;;;;;;;9.06;65.46;98991.53;5011423;28;20550;-76
2021/11/02 06:48:22;;;;;;;25.40;22.30;;;;;;;9.21;65.50;98983.63;5011417;28;20033;-79
2021/11/02 06:59:37;;;;;;;26.20;20.35;;;;;;;9.69;65.71;99027.03;5013248;28;20026;-77
2021/11/02 07:16:52;;;;;;;31.42;25.60;;;;;;;9.96;65.62;98958.75;5014682;28;20482;-78
2021/11/02 07:19:09;;;;;;;39.13;33.05;;;;;;;10.22;65.21;98990.69;5012179;28;20033;-78
2021/11/02 07:21:46;;;;;;;40.60;32.85;;;;;;;9.94;65.36;98918.56;5014192;28;20021;-79
2021/11/02 07:24:26;;;;;;;35.85;24.70;;;;;;;9.92;65.25;98904.75;5001172;28;20030;-78
2021/11/02 08:45:11;;;;;;;21.15;16.25;;;;;;;12.14;67.34;98880.66;5005476;28;20139;-76
2021/11/02 08:47:40;;;;;;;22.40;19.85;;;;;;;11.93;67.31;98816.38;5012768;28;20018;-76
2021/11/02 08:50:10;;;;;;;21.40;18.42;;;;;;;12.47;67.48;98888.56;5007158;28;20046;-76
2021/11/02 08:52:36;;;;;;;26.92;19.35;;;;;;;12.48;67.64;98884.91;4993214;28;20018;-76
2021/11/02 08:55:05;;;;;;;21.48;18.25;;;;;;;12.54;68.07;98890.19;5008215;28;20025;-77
2021/11/02 08:57:31;;;;;;;23.67;20.80;;;;;;;12.68;67.76;98899.78;5010477;28;20026;-76
2021/11/02 08:59:57;;;;;;;25.60;20.08;;;;;;;12.49;68.32;98858.22;5011949;28;20032;-75
2021/11/02 09:02:29;;;;;;;24.77;20.02;;;;;;;12.78;68.95;98898.53;4998637;28;20478;-77
2021/11/02 09:05:02;;;;;;;26.50;20.90;;;;;;;12.79;68.73;98903.63;4993947;28;20089;-78
2021/11/02 09:07:28;;;;;;;25.35;21.95;;;;;;;12.77;68.86;98910.97;4993325;28;20026;-78
2021/11/02 09:09:56;;;;;;;29.75;21.98;;;;;;;12.80;69.31;98901.78;5011861;28;20498;-78
2021/11/02 09:12:31;;;;;;;34.97;26.27;;;;;;;12.71;69.48;98902.00;5003461;28;20060;-77
2021/11/02 09:14:59;;;;;;;27.13;22.80;;;;;;;12.59;70.24;98905.47;4992883;28;20030;-78
2021/11/02 09:17:31;;;;;;;30.83;25.20;;;;;;;12.20;69.94;98846.25;4979767;28;20034;-76
2021/11/02 09:19:59;;;;;;;33.72;26.92;;;;;;;12.44;70.18;98900.41;4992907;28;20026;-76
2021/11/02 09:22:24;;;;;;;31.15;23.20;;;;;;;12.38;70.83;98894.09;5000015;28;20025;-76
2021/11/02 09:24:51;;;;;;;32.88;26.17;;;;;;;12.34;70.58;98898.16;5006625;28;20034;-77
2021/11/02 09:27:18;;;;;;;39.65;30.50;;;;;;;12.27;71.16;98896.53;5004337;28;20051;-77
2021/11/02 09:29:45;;;;;;;44.58;32.22;;;;;;;12.19;70.93;98905.50;5012915;28;20449;-77
2021/11/02 09:32:11;;;;;;;40.33;30.48;;;;;;;11.74;71.05;98827.69;5007860;28;20026;-77
2021/11/02 09:34:37;;;;;;;31.90;26.08;;;;;;;12.02;71.39;98886.56;4992061;28;20018;-77
2021/11/02 09:37:19;;;;;;;28.75;22.77;;;;;;;11.98;71.61;98895.13;5011549;28;20037;-77
2021/11/02 09:39:51;;;;;;;28.35;22.02;;;;;;;11.60;71.89;98844.56;5009981;28;20029;-76
2021/11/02 09:42:34;;;;;;;28.13;23.10;;;;;;;11.84;71.44;98888.16;5011895;28;20030;-76
2021/11/02 09:45:09;;;;;;;32.15;25.55;;;;;;;11.77;72.08;98891.63;5011896;28;20110;-77
2021/11/02 09:47:57;;;;;;;32.13;24.35;;;;;;;11.69;72.09;98883.03;5011883;28;20517;-77
2021/11/02 09:51:04;;;;;;;31.38;22.73;;;;;;;11.65;72.95;98876.50;5011544;28;20076;-77
2021/11/02 09:54:17;;;;;;;27.30;21.42;;;;;;;11.61;72.01;98875.28;4981087;28;20407;-77
2021/11/02 09:57:14;;;;;;;25.77;21.38;;;;;;;11.51;73.05;98861.63;5008689;28;20022;-77
2021/11/02 09:59:55;;;;;;;29.65;23.58;;;;;;;11.58;72.96;98875.69;5010530;28;20414;-77
2021/11/02 10:02:28;;;;;;;24.70;19.60;;;;;;;11.59;72.76;98869.38;5011706;28;20032;-77
2021/11/02 10:05:09;;;;;;;27.30;20.98;;;;;;;11.38;73.14;98828.88;4993373;28;20568;-78
2021/11/02 10:07:47;;;;;;;28.70;22.05;;;;;;;11.59;73.03;98872.84;5010444;28;20022;-77
2021/11/02 10:10:18;;;;;;;27.35;21.27;;;;;;;11.29;72.82;98813.41;5003116;28;20032;-77
2021/11/02 10:12:57;;;;;;;28.25;20.25;;;;;;;11.30;73.16;98821.16;5005678;28;20095;-78
2021/11/02 10:15:44;;;;;;;29.05;22.38;;;;;;;11.60;73.26;98869.19;5006514;28;20095;-77
2021/11/02 10:18:26;;;;;;;26.52;20.98;;;;;;;11.61;73.91;98865.53;5001244;28;20185;-77
2021/11/02 10:21:27;;;;;;;23.58;20.13;;;;;;;11.62;74.00;98863.69;5007917;28;20030;-77
2021/11/02 10:24:10;;;;;;;26.50;22.13;;;;;;;11.60;74.28;98857.78;5007429;28;20022;-81
2021/11/02 10:27:14;;;;;;;22.25;18.95;;;;;;;11.57;73.99;98855.56;4983557;28;20025;-83
2021/11/02 10:30:02;;;;;;;24.10;19.85;;;;;;;11.56;74.26;98861.84;5005755;28;20028;-84
2021/11/02 10:32:29;;;;;;;24.63;21.45;;;;;;;11.56;74.26;98856.56;5007536;28;20033;-84
2021/11/02 10:35:05;;;;;;;24.42;20.08;;;;;;;11.09;73.57;98787.72;5008049;28;20034;-84
2021/11/02 10:38:16;;;;;;;28.60;22.10;;;;;;;11.59;74.79;98856.97;4987623;28;20124;-83
2021/11/02 10:40:50;;;;;;;25.80;21.55;;;;;;;11.63;74.04;98847.63;4979969;28;20041;-84
2021/11/02 10:43:36;;;;;;;26.75;21.52;;;;;;;11.68;74.07;98857.59;5030649;28;20026;-84
2021/11/02 10:46:04;;;;;;;27.02;21.40;;;;;;;11.69;73.62;98851.28;4992813;28;20614;-84
2021/11/02 10:48:43;;;;;;;24.38;21.02;;;;;;;11.38;74.96;98802.44;4991491;28;20558;-84
2021/11/02 10:51:35;;;;;;;23.65;19.88;;;;;;;11.64;75.12;98851.09;5001882;28;20022;-84
2021/11/02 10:54:43;;;;;;;21.27;18.35;;;;;;;11.61;74.63;98849.66;4988859;28;20049;-84
2021/11/02 10:57:31;;;;;;;30.50;25.55;;;;;;;11.33;74.71;98798.78;4994929;28;20041;-84
2021/11/02 11:00:02;;;;;;;26.65;22.20;;;;;;;11.24;74.59;98800.81;5000254;28;20572;-84
2021/11/02 11:02:29;;;;;;;23.40;18.20;;;;;;;11.68;73.96;98854.94;5022176;28;20049;-84
2021/11/02 11:04:57;;;;;;;25.17;19.52;;;;;;;10.68;74.41;98724.44;5010528;28;20499;-84
2021/11/02 11:07:34;;;;;;;24.40;20.40;;;;;;;11.17;74.75;98813.19;5007210;28;20526;-84
2021/11/02 11:10:02;;;;;;;23.52;19.33;;;;;;;11.61;74.80;98883.22;5000656;28;20115;-84
2021/11/02 11:12:33;;;;;;;25.20;21.30;;;;;;;11.61;74.91;98885.84;5009887;28;20446;-84
2021/11/02 11:15:03;;;;;;;31.55;25.65;;;;;;;11.61;75.43;98904.38;5010786;28;20105;-84
2021/11/02 11:17:31;;;;;;;28.02;23.38;;;;;;;11.61;75.32;98893.78;5006585;28;20062;-84
2021/11/02 11:20:15;;;;;;;26.05;20.60;;;;;;;11.25;75.62;98847.34;5010178;28;20108;-84
2021/11/02 11:22:42;;;;;;;21.63;19.10;;;;;;;11.44;75.52;98890.69;4997203;28;20029;-84
2021/11/02 11:25:19;;;;;;;21.98;19.02;;;;;;;11.02;75.78;98808.03;5005509;28;20049;-77
2021/11/02 11:27:57;;;;;;;23.20;19.15;;;;;;;11.55;76.32;98899.88;5008723;28;20044;-77
2021/11/02 11:30:32;;;;;;;21.67;18.48;;;;;;;11.58;75.78;98907.41;5007614;28;20030;-77
2021/11/02 11:33:06;;;;;;;22.70;19.30;;;;;;;11.34;76.17;98883.16;4987001;28;20018;-77
2021/11/02 11:35:35;;;;;;;30.35;26.55;;;;;;;11.25;76.09;98878.25;4996172;28;20423;-77
2021/11/02 11:38:03;;;;;;;22.23;19.77;;;;;;;11.22;76.25;98858.31;5010215;28;20033;-77
2021/11/02 11:40:33;;;;;;;23.50;20.17;;;;;;;11.59;76.03;98901.94;5007847;28;20049;-77
2021/11/02 11:43:02;;;;;;;23.00;18.95;;;;;;;11.29;75.89;98853.06;4995285;28;20029;-78
2021/11/02 11:45:29;;;;;;;23.88;19.45;;;;;;;11.51;75.42;98880.16;5005436;28;20022;-78
2021/11/02 11:48:09;;;;;;;20.75;17.70;;;;;;;11.61;75.67;98894.59;5004820;28;20022;-78
2021/11/02 11:50:37;;;;;;;22.48;20.00;;;;;;;11.16;76.13;98802.81;5005412;28;20521;-77
2021/11/02 11:53:03;;;;;;;20.08;17.48;;;;;;;11.41;76.64;98844.34;4989835;28;20117;-77
2021/11/02 11:55:33;;;;;;;20.60;17.73;;;;;;;11.64;76.14;98857.19;5011120;28;20145;-77
2021/11/02 11:58:09;;;;;;;26.60;20.88;;;;;;;11.22;75.88;98786.16;5012199;28;20491;-78
2021/11/02 12:00:37;;;;;;;21.30;19.02;;;;;;;11.64;76.32;98854.53;4986916;28;20117;-78
2021/11/02 12:03:25;;;;;;;23.33;18.13;;;;;;;11.56;76.32;98825.66;5009241;28;20442;-78
2021/11/02 12:06:16;;;;;;;23.15;18.73;;;;;;;11.63;76.51;98833.59;5008184;28;20037;-79
2021/11/02 12:09:06;;;;;;;17.67;15.77;;;;;;;11.40;75.78;98778.47;5002384;28;20128;-78
2021/11/02 12:11:33;;;;;;;18.13;15.93;;;;;;;11.71;75.68;98809.59;5007286;28;20029;-78
2021/11/02 12:14:10;;;;;;;17.92;15.85;;;;;;;11.48;76.13;98756.31;5002712;28;20091;-78
2021/11/02 12:16:37;;;;;;;19.05;15.60;;;;;;;11.86;75.46;98806.78;5012446;28;20022;-78
2021/11/02 12:19:15;;;;;;;16.00;14.30;;;;;;;11.64;74.79;98759.34;5009920;28;20046;-78
2021/11/02 12:21:43;;;;;;;16.60;14.50;;;;;;;11.62;74.84;98737.59;4995899;28;20164;-77
2021/11/02 12:24:11;;;;;;;21.48;17.73;;;;;;;11.56;74.76;98727.03;5002908;28;20026;-78
2021/11/02 12:26:49;;;;;;;24.30;19.05;;;;;;;11.54;74.56;98732.50;5026466;28;20033;-77
2021/11/02 12:29:19;;;;;;;26.73;21.63;;;;;;;11.67;75.19;98747.56;5031163;28;20625;-78
2021/11/02 12:32:14;;;;;;;24.02;20.10;;;;;;;11.93;75.09;98802.31;5012860;28;20375;-77
2021/11/02 12:34:51;;;;;;;22.40;19.92;;;;;;;11.94;74.61;98817.19;4996683;28;20411;-76
2021/11/02 12:37:18;;;;;;;19.80;16.70;;;;;;;11.97;75.28;98827.34;5006295;28;20073;-77
2021/11/02 12:39:45;;;;;;;20.27;17.73;;;;;;;11.69;75.32;98801.06;5017453;28;20026;-76
2021/11/02 12:42:12;;;;;;;22.73;18.70;;;;;;;11.87;74.82;98827.72;5009846;28;20105;-76
2021/11/02 12:44:40;;;;;;;20.83;17.02;;;;;;;11.93;75.23;98834.88;5012467;28;20499;-77
2021/11/02 12:47:17;;;;;;;18.40;15.38;;;;;;;11.94;75.84;98838.34;5010530;28;20507;-77
2021/11/02 12:49:56;;;;;;;18.83;16.02;;;;;;;11.91;75.33;98847.50;5012598;28;20026;-77
2021/11/02 12:52:29;;;;;;;18.60;15.30;;;;;;;11.57;75.77;98792.91;5010736;28;20029;-77
2021/11/02 12:55:00;;;;;;;13.65;12.10;;;;;;;11.93;75.31;98821.66;5012356;28;20030;-76
2021/11/02 12:57:58;;;;;;;12.45;10.60;;;;;;;11.86;75.32;98807.59;4993016;28;20492;-77
2021/11/02 13:00:27;;;;;;;11.60;9.98;;;;;;;11.71;75.45;98767.28;5001366;28;20045;-76
2021/11/02 13:03:02;;;;;;;12.48;11.07;;;;;;;11.54;75.15;98727.22;5007587;28;20582;-79
2021/11/02 13:05:30;;;;;;;13.18;11.60;;;;;;;12.05;74.51;98793.56;5011966;28;20030;-77
2021/11/02 13:08:07;;;;;;;12.48;11.18;;;;;;;12.13;74.66;98795.19;5012395;28;20568;-75
2021/11/02 13:10:33;;;;;;;12.25;10.88;;;;;;;11.75;74.47;98744.69;4997244;28;20026;-76
2021/11/02 13:13:13;;;;;;;11.40;10.30;;;;;;;12.13;74.84;98789.06;5009176;28;20045;-76
2021/11/02 13:15:47;;;;;;;12.68;11.38;;;;;;;12.13;74.61;98791.72;5011049;28;20022;-76
2021/11/02 13:18:30;;;;;;;12.05;10.70;;;;;;;12.17;74.61;98801.69;5002248;28;20092;-76
2021/11/02 13:21:15;;;;;;;14.13;12.73;;;;;;;11.94;74.65;98746.56;4987936;28;20045;-77
2021/11/02 13:23:43;;;;;;;21.90;19.00;;;;;;;12.22;74.72;98779.88;5004103;28;20395;-79
2021/11/02 13:26:14;;;;;;;22.50;18.80;;;;;;;12.46;74.35;98792.44;4980154;28;20041;-78
2021/11/02 13:28:40;;;;;;;19.35;17.27;;;;;;;12.49;74.07;98786.75;4990698;28;20029;-77
2021/11/02 13:31:07;;;;;;;22.23;19.35;;;;;;;12.57;73.98;98796.28;4994125;28;20035;-77
2021/11/02 13:33:33;;;;;;;29.73;22.95;;;;;;;12.23;73.88;98732.03;5011950;28;20418;-76
2021/11/02 13:36:00;;;;;;;23.80;19.95;;;;;;;12.31;73.81;98750.34;4993452;28;20022;-77
2021/11/02 13:38:32;;;;;;;20.02;17.92;;;;;;;12.62;73.91;98796.47;5014714;28;20056;-76
2021/11/02 13:41:06;;;;;;;;;;;;;;;12.50;74.81;98798.16;4982055;28;20037;-76
2021/11/02 13:43:33;;;;;;;34.05;29.38;;;;;;;12.57;74.21;98798.94;4999285;28;19913;-78
2021/11/02 13:46:00;;;;;;;44.25;36.75;;;;;;;12.24;74.58;98754.84;5001903;28;20034;-78
2021/11/02 13:48:27;;;;;;;51.83;43.33;;;;;;;12.60;74.27;98795.88;4999591;28;20022;-77
2021/11/02 13:50:54;;;;;;;56.85;46.83;;;;;;;12.64;74.57;98778.56;5001496;28;20036;-77
2021/11/02 13:53:22;;;;;;;58.85;49.38;;;;;;;12.25;74.63;98715.97;5009094;28;20057;-76
2021/11/02 13:55:48;;;;;;;34.42;29.00;;;;;;;12.68;74.59;98782.44;5011795;28;20112;-77
2021/11/02 13:58:14;;;;;;;29.45;24.92;;;;;;;12.35;74.84;98733.03;5011287;28;20100;-77
2021/11/02 14:00:40;;;;;;;28.23;22.02;;;;;;;12.29;74.47;98727.75;4999770;28;20041;-77
2021/11/02 14:03:12;;;;;;;25.92;20.17;;;;;;;12.26;74.07;98705.16;5007580;28;20084;-76
2021/11/02 14:05:40;;;;;;;22.48;18.35;;;;;;;12.22;74.43;98716.38;5010809;28;20120;-77
2021/11/02 14:08:07;;;;;;;26.45;21.90;;;;;;;12.41;74.66;98745.41;5008490;28;20402;-75
2021/11/02 14:10:32;;;;;;;30.88;22.52;;;;;;;12.26;74.31;98733.47;4987905;28;20396;-76
2021/11/02 14:12:58;;;;;;;27.85;24.08;;;;;;;12.58;74.59;98790.78;4993570;28;20040;-77
2021/11/02 14:15:27;;;;;;;23.77;20.35;;;;;;;12.25;74.63;98731.84;4997491;28;20388;-76
2021/11/02 14:17:56;;;;;;;21.52;17.85;;;;;;;12.56;74.97;98776.94;5002261;28;20050;-76
2021/11/02 14:20:51;;;;;;;21.50;16.77;;;;;;;12.52;75.03;98781.03;5000026;28;20029;-77
2021/11/02 14:23:29;;;;;;;30.42;25.23;;;;;;;12.07;74.73;98717.44;4978162;28;20121;-76
2021/11/02 14:26:13;;;;;;;25.33;20.95;;;;;;;12.51;74.84;98795.28;5000340;28;20033;-76
2021/11/02 14:28:48;;;;;;;24.67;21.35;;;;;;;12.51;74.80;98774.09;4997661;28;20026;-76
2021/11/02 14:31:32;;;;;;;24.77;21.48;;;;;;;12.55;74.48;98777.97;4998229;28;20037;-76
2021/11/02 14:33:58;;;;;;;25.40;22.67;;;;;;;12.48;74.58;98782.47;5006806;28;20113;-76
2021/11/02 14:36:39;;;;;;;23.60;20.20;;;;;;;12.35;75.08;98758.69;5011135;28;20171;-77
2021/11/02 14:39:12;;;;;;;27.05;23.08;;;;;;;12.46;74.73;98778.41;4986927;28;20400;-76
2021/11/02 14:41:46;;;;;;;20.02;17.80;;;;;;;12.37;74.97;98754.00;4976106;28;20038;-76
2021/11/02 14:44:17;;;;;;;20.55;18.23;;;;;;;12.58;75.24;98776.72;5002443;28;20026;-76
2021/11/02 14:47:00;;;;;;;21.77;19.27;;;;;;;12.58;75.19;98777.53;4994035;28;20513;-77
2021/11/02 14:49:29;;;;;;;21.50;19.20;;;;;;;12.58;74.77;98777.53;5005526;28;20029;-76
2021/11/02 14:52:03;;;;;;;24.30;20.08;;;;;;;12.59;74.94;98786.28;4991951;28;20065;-76
2021/11/02 14:54:35;;;;;;;21.90;19.60;;;;;;;12.54;75.13;98786.94;4993811;28;20039;-76
2021/11/02 14:57:18;;;;;;;;;;;;;;;12.39;75.90;98789.00;5026386;28;20021;-76
2021/11/02 15:00:01;;;;;;;26.33;23.40;;;;;;;12.47;75.20;98782.69;5005823;28;19956;-76
2021/11/02 15:02:33;;;;;;;30.63;25.10;;;;;;;11.97;75.41;98698.53;4990777;28;20030;-76
2021/11/02 15:05:04;;;;;;;29.27;24.98;;;;;;;12.27;75.22;98745.69;5018397;28;20417;-76
2021/11/02 15:07:32;;;;;;;28.52;23.88;;;;;;;12.27;75.34;98750.97;4994455;28;20413;-77
2021/11/02 15:09:58;;;;;;;31.10;27.23;;;;;;;12.07;75.15;98717.44;5010687;28;20029;-77
2021/11/02 15:12:24;;;;;;;33.85;29.23;;;;;;;12.47;75.33;98786.13;5008436;28;20038;-77
2021/11/02 15:14:49;;;;;;;34.85;28.75;;;;;;;12.42;75.60;98767.41;5001988;28;20034;-75
2021/11/02 15:17:18;;;;;;;36.53;27.77;;;;;;;12.13;75.26;98736.97;4994534;28;20410;-77
2021/11/02 15:19:44;;;;;;;38.42;32.80;;;;;;;11.97;75.60;98709.13;5014167;28;20033;-76
2021/11/02 15:22:16;;;;;;;35.17;27.88;;;;;;;12.41;75.90;98784.31;4998541;28;20034;-77
2021/11/02 15:24:59;;;;;;;23.42;18.80;;;;;;;12.31;75.98;98768.88;4995014;28;20026;-76
2021/11/02 15:27:27;;;;;;;21.00;18.33;;;;;;;12.41;76.31;98784.31;5013072;28;20038;-75
2021/11/02 15:30:04;;;;;;;16.52;14.73;;;;;;;12.04;76.04;98728.44;5011059;28;20045;-77
2021/11/02 15:32:41;;;;;;;22.08;19.00;;;;;;;12.20;76.40;98755.47;5012200;28;20487;-76
2021/11/02 15:35:10;;;;;;;19.58;17.45;;;;;;;12.42;76.61;98799.19;5014104;28;20033;-76
2021/11/02 15:37:54;;;;;;;17.13;15.32;;;;;;;12.47;77.03;98802.03;5013900;28;20029;-76
2021/11/02 15:40:26;;;;;;;17.38;14.77;;;;;;;12.47;76.50;98801.22;5012748;28;20117;-75
2021/11/02 15:42:53;;;;;;;;;;;;;;;12.36;77.52;98803.47;5012531;28;20033;-77
2021/11/02 15:45:29;;;;;;;20.10;16.42;;;;;;;12.44;76.41;98804.28;5011670;28;20313;-76
2021/11/02 15:47:54;;;;;;;24.10;21.52;;;;;;;12.45;76.58;98800.59;5014368;28;20422;-76
2021/11/02 15:50:27;;;;;;;25.83;23.05;;;;;;;12.49;76.47;98799.97;5014298;28;20034;-76
2021/11/02 15:52:59;;;;;;;21.98;19.65;;;;;;;11.94;76.52;98717.47;5014237;28;20430;-76
2021/11/02 15:55:27;;;;;;;24.48;21.20;;;;;;;12.28;76.24;98764.00;5014123;28;20034;-76
2021/11/02 15:57:59;;;;;;;28.10;25.15;;;;;;;12.40;76.53;98798.56;5014255;28;20120;-77
2021/11/02 16:00:27;;;;;;;27.90;24.92;;;;;;;12.56;76.27;98814.00;5014218;28;20025;-76
2021/11/02 16:02:53;;;;;;;26.25;23.00;;;;;;;12.23;76.72;98771.75;5014261;28;20050;-75
2021/11/02 16:05:21;;;;;;;28.88;25.77;;;;;;;12.21;76.90;98752.63;5013914;28;20041;-76
2021/11/02 16:07:46;;;;;;;28.50;25.05;;;;;;;12.18;76.36;98760.97;5014063;28;20058;-76
2021/11/02 16:10:13;;;;;;;29.95;26.77;;;;;;;12.16;76.46;98739.19;5013800;28;20075;-77
2021/11/02 16:12:41;;;;;;;28.05;25.05;;;;;;;12.61;76.76;98808.91;5013850;28;20076;-76
2021/11/02 16:15:06;;;;;;;26.58;23.67;;;;;;;12.64;76.25;98815.66;4996369;28;20479;-76
2021/11/02 16:17:56;;;;;;;22.90;20.55;;;;;;;12.62;76.42;98818.47;4996255;28;20085;-76
2021/11/02 16:20:32;;;;;;;17.15;15.20;;;;;;;12.62;75.93;98823.78;5013670;28;20379;-76
2021/11/02 16:22:58;;;;;;;18.48;16.52;;;;;;;12.58;76.35;98824.41;5013596;28;20026;-76
2021/11/02 16:25:25;;;;;;;25.20;21.25;;;;;;;12.57;76.38;98820.94;5013605;28;20041;-77
2021/11/02 16:27:56;;;;;;;20.75;18.55;;;;;;;12.08;76.47;98744.72;4995085;28;20041;-76